sensor_id;sensor_type;location;lat;lon;timestamp;P1;P2;P0
84887;PMS7003;75150;54.494;18.518;2024-01-10T00:00:54;8.50;6.00;4.00
84887;PMS7003;75150;54.494;18.518;2024-01-10T00:03:16;8.50;8.50;6.75
84887;PMS7003;75150;54.494;18.518;2024-01-10T00:05:17;6.25;6.00;3.75
84887;PMS7003;75150;54.494;18.518;2024-01-10T00:07:18;9.00;5.00;4.00
84887;PMS7003;75150;54.494;18.518;2024-01-10T00:09:20;8.50;6.00;5.00
84887;PMS7003;75150;54.494;18.518;2024-01-10T00:11:23;10.00;6.25;4.50
84887;PMS7003;75150;54.494;18.518;2024-01-10T00:13:24;9.50;7.00;4.50
84887;PMS7003;75150;54.494;18.518;2024-01-10T00:15:25;5.50;5.50;3.75
84887;PMS7003;75150;54.494;18.518;2024-01-10T00:17:26;5.00;4.00;3.00
84887;PMS7003;75150;54.494;18.518;2024-01-10T00:19:28;7.00;6.00;4.00
84887;PMS7003;75150;54.494;18.518;2024-01-10T00:21:30;7.00;5.50;4.00
84887;PMS7003;75150;54.494;18.518;2024-01-10T00:23:31;9.25;7.00;6.00
84887;PMS7003;75150;54.494;18.518;2024-01-10T00:25:33;5.50;4.00;4.00
84887;PMS7003;75150;54.494;18.518;2024-01-10T00:27:36;6.25;4.00;3.00
84887;PMS7003;75150;54.494;18.518;2024-01-10T00:29:37;6.00;4.50;4.00
84887;PMS7003;75150;54.494;18.518;2024-01-10T00:31:38;10.75;4.00;3.75
84887;PMS7003;75150;54.494;18.518;2024-01-10T00:33:40;8.75;6.00;4.00
84887;PMS7003;75150;54.494;18.518;2024-01-10T00:35:42;6.00;5.00;3.50
84887;PMS7003;75150;54.494;18.518;2024-01-10T00:37:43;3.00;3.00;3.00
84887;PMS7003;75150;54.494;18.518;2024-01-10T00:39:44;4.00;4.00;3.25
84887;PMS7003;75150;54.494;18.518;2024-01-10T00:41:46;5.00;3.25;3.00
84887;PMS7003;75150;54.494;18.518;2024-01-10T00:43:49;8.00;5.50;4.00
84887;PMS7003;75150;54.494;18.518;2024-01-10T00:45:50;6.00;4.00;3.00
84887;PMS7003;75150;54.494;18.518;2024-01-10T00:47:51;5.50;4.00;3.00
84887;PMS7003;75150;54.494;18.518;2024-01-10T00:49:53;5.50;3.50;3.25
84887;PMS7003;75150;54.494;18.518;2024-01-10T00:51:54;6.25;3.75;3.25
84887;PMS7003;75150;54.494;18.518;2024-01-10T00:53:55;5.50;5.50;4.00
84887;PMS7003;75150;54.494;18.518;2024-01-10T00:55:57;6.00;6.00;3.50
84887;PMS7003;75150;54.494;18.518;2024-01-10T00:57:58;12.75;4.50;3.50
84887;PMS7003;75150;54.494;18.518;2024-01-10T01:00:01;8.00;3.00;3.00
84887;PMS7003;75150;54.494;18.518;2024-01-10T01:02:02;9.00;6.00;4.00
84887;PMS7003;75150;54.494;18.518;2024-01-10T01:04:04;5.00;3.00;2.50
84887;PMS7003;75150;54.494;18.518;2024-01-10T01:06:05;3.25;2.50;2.00
84887;PMS7003;75150;54.494;18.518;2024-01-10T01:08:07;4.50;3.00;2.00
84887;PMS7003;75150;54.494;18.518;2024-01-10T01:10:08;2.50;2.50;1.00
84887;PMS7003;75150;54.494;18.518;2024-01-10T01:12:10;6.00;4.00;3.75
84887;PMS7003;75150;54.494;18.518;2024-01-10T01:14:11;4.00;4.00;2.50
84887;PMS7003;75150;54.494;18.518;2024-01-10T01:16:14;4.50;3.25;3.00
84887;PMS7003;75150;54.494;18.518;2024-01-10T01:18:15;3.50;2.50;2.00
84887;PMS7003;75150;54.494;18.518;2024-01-10T01:20:17;4.50;3.75;2.00
84887;PMS7003;75150;54.494;18.518;2024-01-10T01:22:18;6.00;4.50;3.50
84887;PMS7003;75150;54.494;18.518;2024-01-10T01:24:20;4.00;4.00;3.00
84887;PMS7003;75150;54.494;18.518;2024-01-10T01:26:21;3.75;3.00;2.50
84887;PMS7003;75150;54.494;18.518;2024-01-10T01:28:22;6.75;4.00;3.00
84887;PMS7003;75150;54.494;18.518;2024-01-10T01:30:24;6.00;4.00;3.00
84887;PMS7003;75150;54.494;18.518;2024-01-10T01:32:27;4.00;4.00;3.00
84887;PMS7003;75150;54.494;18.518;2024-01-10T01:34:28;1.00;1.00;1.00
84887;PMS7003;75150;54.494;18.518;2024-01-10T01:36:29;3.25;3.00;3.00
84887;PMS7003;75150;54.494;18.518;2024-01-10T01:38:31;3.50;3.50;3.00
84887;PMS7003;75150;54.494;18.518;2024-01-10T01:40:32;7.00;5.00;3.75
84887;PMS7003;75150;54.494;18.518;2024-01-10T01:42:34;3.50;3.00;1.50
84887;PMS7003;75150;54.494;18.518;2024-01-10T01:44:35;3.75;3.75;3.00
84887;PMS7003;75150;54.494;18.518;2024-01-10T01:46:36;3.25;3.25;3.00
84887;PMS7003;75150;54.494;18.518;2024-01-10T01:48:41;7.50;6.00;4.50
84887;PMS7003;75150;54.494;18.518;2024-01-10T01:50:43;4.00;4.00;4.00
84887;PMS7003;75150;54.494;18.518;2024-01-10T01:52:45;4.00;4.00;3.50
84887;PMS7003;75150;54.494;18.518;2024-01-10T01:54:46;6.00;6.00;4.50
84887;PMS7003;75150;54.494;18.518;2024-01-10T01:56:49;6.00;4.50;3.75
84887;PMS7003;75150;54.494;18.518;2024-01-10T01:58:50;7.25;6.00;5.50
84887;PMS7003;75150;54.494;18.518;2024-01-10T02:00:52;3.75;2.50;2.00
84887;PMS7003;75150;54.494;18.518;2024-01-10T02:02:54;12.25;9.00;6.25
84887;PMS7003;75150;54.494;18.518;2024-01-10T02:04:57;6.75;4.00;3.25
84887;PMS7003;75150;54.494;18.518;2024-01-10T02:06:59;4.50;4.50;4.00
84887;PMS7003;75150;54.494;18.518;2024-01-10T02:09:01;6.00;3.00;3.00
84887;PMS7003;75150;54.494;18.518;2024-01-10T02:11:02;5.00;5.00;4.00
84887;PMS7003;75150;54.494;18.518;2024-01-10T02:13:04;3.00;3.00;3.00
84887;PMS7003;75150;54.494;18.518;2024-01-10T02:15:06;7.00;4.00;4.00
84887;PMS7003;75150;54.494;18.518;2024-01-10T02:17:08;5.00;4.50;2.00
84887;PMS7003;75150;54.494;18.518;2024-01-10T02:19:17;6.00;4.00;3.00
84887;PMS7003;75150;54.494;18.518;2024-01-10T02:21:21;6.00;6.00;4.00
84887;PMS7003;75150;54.494;18.518;2024-01-10T02:23:23;4.25;3.25;3.00
84887;PMS7003;75150;54.494;18.518;2024-01-10T02:25:26;4.00;2.00;1.00
84887;PMS7003;75150;54.494;18.518;2024-01-10T02:27:27;6.00;6.00;4.00
84887;PMS7003;75150;54.494;18.518;2024-01-10T02:29:29;4.25;3.75;2.50
84887;PMS7003;75150;54.494;18.518;2024-01-10T02:31:31;6.00;4.00;3.25
84887;PMS7003;75150;54.494;18.518;2024-01-10T02:33:32;5.50;5.50;3.00
84887;PMS7003;75150;54.494;18.518;2024-01-10T02:35:34;4.50;4.50;4.00
84887;PMS7003;75150;54.494;18.518;2024-01-10T02:37:35;3.75;3.00;3.00
84887;PMS7003;75150;54.494;18.518;2024-01-10T02:39:37;4.00;3.50;1.50
84887;PMS7003;75150;54.494;18.518;2024-01-10T02:41:40;1.00;1.00;1.00
84887;PMS7003;75150;54.494;18.518;2024-01-10T02:43:41;4.00;4.00;3.00
84887;PMS7003;75150;54.494;18.518;2024-01-10T02:45:42;3.00;3.00;3.00
84887;PMS7003;75150;54.494;18.518;2024-01-10T02:47:44;3.00;3.00;1.00
84887;PMS7003;75150;54.494;18.518;2024-01-10T02:49:46;4.50;3.25;3.00
84887;PMS7003;75150;54.494;18.518;2024-01-10T02:51:48;9.00;3.50;3.00
84887;PMS7003;75150;54.494;18.518;2024-01-10T02:53:50;5.50;4.00;3.50
84887;PMS7003;75150;54.494;18.518;2024-01-10T02:55:51;4.25;3.00;2.00
84887;PMS7003;75150;54.494;18.518;2024-01-10T02:57:54;3.00;3.00;3.00
84887;PMS7003;75150;54.494;18.518;2024-01-10T02:59:55;3.00;3.00;3.00
84887;PMS7003;75150;54.494;18.518;2024-01-10T03:01:57;7.50;3.25;3.00
84887;PMS7003;75150;54.494;18.518;2024-01-10T03:03:58;6.75;4.00;3.75
84887;PMS7003;75150;54.494;18.518;2024-01-10T03:06:00;4.00;3.00;3.00
84887;PMS7003;75150;54.494;18.518;2024-01-10T03:08:01;6.00;3.25;1.00
84887;PMS7003;75150;54.494;18.518;2024-01-10T03:10:03;1.00;0.00;0.00
84887;PMS7003;75150;54.494;18.518;2024-01-10T03:12:05;6.75;4.50;3.25
84887;PMS7003;75150;54.494;18.518;2024-01-10T03:14:09;5.00;3.75;3.00
84887;PMS7003;75150;54.494;18.518;2024-01-10T03:16:11;3.25;3.25;2.00
84887;PMS7003;75150;54.494;18.518;2024-01-10T03:18:12;4.00;4.00;3.00
84887;PMS7003;75150;54.494;18.518;2024-01-10T03:20:13;5.50;4.00;3.00
84887;PMS7003;75150;54.494;18.518;2024-01-10T03:22:15;3.00;3.00;3.00
84887;PMS7003;75150;54.494;18.518;2024-01-10T03:24:17;3.75;3.00;2.50
84887;PMS7003;75150;54.494;18.518;2024-01-10T03:26:19;2.50;2.50;2.00
84887;PMS7003;75150;54.494;18.518;2024-01-10T03:28:20;5.25;5.00;3.50
84887;PMS7003;75150;54.494;18.518;2024-01-10T03:30:23;3.75;3.00;1.50
84887;PMS7003;75150;54.494;18.518;2024-01-10T03:32:24;4.00;4.00;3.00
84887;PMS7003;75150;54.494;18.518;2024-01-10T03:34:25;3.50;3.50;2.50
84887;PMS7003;75150;54.494;18.518;2024-01-10T03:36:26;4.00;4.00;3.75
84887;PMS7003;75150;54.494;18.518;2024-01-10T03:38:28;3.00;3.00;1.00
84887;PMS7003;75150;54.494;18.518;2024-01-10T03:40:29;3.25;2.50;1.00
84887;PMS7003;75150;54.494;18.518;2024-01-10T03:42:31;4.50;4.50;3.50
84887;PMS7003;75150;54.494;18.518;2024-01-10T03:44:32;8.00;4.00;4.00
84887;PMS7003;75150;54.494;18.518;2024-01-10T03:46:35;4.00;4.00;3.25
84887;PMS7003;75150;54.494;18.518;2024-01-10T03:48:36;4.50;4.50;4.00
84887;PMS7003;75150;54.494;18.518;2024-01-10T03:50:38;2.75;2.75;2.25
84887;PMS7003;75150;54.494;18.518;2024-01-10T03:52:39;4.50;4.50;3.25
84887;PMS7003;75150;54.494;18.518;2024-01-10T03:54:41;9.00;4.50;3.25
84887;PMS7003;75150;54.494;18.518;2024-01-10T03:56:42;4.50;3.00;3.00
84887;PMS7003;75150;54.494;18.518;2024-01-10T03:58:43;6.75;6.00;4.00
84887;PMS7003;75150;54.494;18.518;2024-01-10T04:00:44;5.00;3.50;3.00
84887;PMS7003;75150;54.494;18.518;2024-01-10T04:02:47;6.00;4.00;3.25
84887;PMS7003;75150;54.494;18.518;2024-01-10T04:04:49;5.50;4.50;4.00
84887;PMS7003;75150;54.494;18.518;2024-01-10T04:06:50;6.25;6.25;4.00
84887;PMS7003;75150;54.494;18.518;2024-01-10T04:08:52;2.50;2.50;1.00
84887;PMS7003;75150;54.494;18.518;2024-01-10T04:10:54;4.50;3.00;1.50
84887;PMS7003;75150;54.494;18.518;2024-01-10T04:12:55;5.50;3.75;3.00
84887;PMS7003;75150;54.494;18.518;2024-01-10T04:14:57;3.75;3.75;3.00
84887;PMS7003;75150;54.494;18.518;2024-01-10T04:16:58;3.25;3.25;3.00
84887;PMS7003;75150;54.494;18.518;2024-01-10T04:19:01;4.50;4.50;3.25
84887;PMS7003;75150;54.494;18.518;2024-01-10T04:21:02;10.00;6.00;4.50
84887;PMS7003;75150;54.494;18.518;2024-01-10T04:23:04;7.00;5.00;3.75
84887;PMS7003;75150;54.494;18.518;2024-01-10T04:25:06;7.00;6.00;3.50
84887;PMS7003;75150;54.494;18.518;2024-01-10T04:27:08;7.00;4.00;4.00
84887;PMS7003;75150;54.494;18.518;2024-01-10T04:29:09;7.00;4.50;3.00
84887;PMS7003;75150;54.494;18.518;2024-01-10T04:31:11;3.00;3.00;1.00
84887;PMS7003;75150;54.494;18.518;2024-01-10T04:33:12;3.00;3.00;2.50
84887;PMS7003;75150;54.494;18.518;2024-01-10T04:35:15;6.50;3.00;3.00
84887;PMS7003;75150;54.494;18.518;2024-01-10T04:37:17;2.50;1.50;1.00
84887;PMS7003;75150;54.494;18.518;2024-01-10T04:39:19;3.00;3.00;2.50
84887;PMS7003;75150;54.494;18.518;2024-01-10T04:41:20;5.50;3.25;2.00
84887;PMS7003;75150;54.494;18.518;2024-01-10T04:43:22;4.00;3.00;1.00
84887;PMS7003;75150;54.494;18.518;2024-01-10T04:45:23;3.50;3.00;2.00
84887;PMS7003;75150;54.494;18.518;2024-01-10T04:47:25;6.25;3.00;2.00
84887;PMS7003;75150;54.494;18.518;2024-01-10T04:49:26;9.75;4.00;3.00
84887;PMS7003;75150;54.494;18.518;2024-01-10T04:51:29;2.50;2.50;1.50
84887;PMS7003;75150;54.494;18.518;2024-01-10T04:53:30;6.00;5.50;3.25
84887;PMS7003;75150;54.494;18.518;2024-01-10T04:55:32;7.00;3.50;3.00
84887;PMS7003;75150;54.494;18.518;2024-01-10T04:57:33;1.00;1.00;1.00
84887;PMS7003;75150;54.494;18.518;2024-01-10T04:59:35;2.50;2.50;1.00
84887;PMS7003;75150;54.494;18.518;2024-01-10T05:01:36;2.50;2.50;1.00
84887;PMS7003;75150;54.494;18.518;2024-01-10T05:03:38;1.00;1.00;1.00
84887;PMS7003;75150;54.494;18.518;2024-01-10T05:05:39;1.00;1.00;1.00
84887;PMS7003;75150;54.494;18.518;2024-01-10T05:07:42;7.00;3.00;1.00
84887;PMS7003;75150;54.494;18.518;2024-01-10T05:09:43;3.75;3.75;3.00
84887;PMS7003;75150;54.494;18.518;2024-01-10T05:11:45;3.75;3.75;3.00
84887;PMS7003;75150;54.494;18.518;2024-01-10T05:13:46;4.00;4.00;3.75
84887;PMS7003;75150;54.494;18.518;2024-01-10T05:15:48;3.00;3.00;2.50
84887;PMS7003;75150;54.494;18.518;2024-01-10T05:17:49;3.75;1.50;1.00
84887;PMS7003;75150;54.494;18.518;2024-01-10T05:19:50;3.75;1.00;1.00
84887;PMS7003;75150;54.494;18.518;2024-01-10T05:21:51;3.75;3.75;1.00
84887;PMS7003;75150;54.494;18.518;2024-01-10T05:23:55;0.00;0.00;0.00
84887;PMS7003;75150;54.494;18.518;2024-01-10T05:25:56;7.00;4.00;3.75
84887;PMS7003;75150;54.494;18.518;2024-01-10T05:27:57;2.50;2.50;1.00
84887;PMS7003;75150;54.494;18.518;2024-01-10T05:29:59;4.00;4.00;3.00
84887;PMS7003;75150;54.494;18.518;2024-01-10T05:32:00;6.00;6.00;4.00
84887;PMS7003;75150;54.494;18.518;2024-01-10T05:34:01;3.00;3.00;3.00
84887;PMS7003;75150;54.494;18.518;2024-01-10T05:36:03;4.50;4.50;4.00
84887;PMS7003;75150;54.494;18.518;2024-01-10T05:38:05;6.00;4.00;3.50
84887;PMS7003;75150;54.494;18.518;2024-01-10T05:40:09;4.00;4.00;3.50
84887;PMS7003;75150;54.494;18.518;2024-01-10T05:42:10;4.00;4.00;3.00
84887;PMS7003;75150;54.494;18.518;2024-01-10T05:44:12;7.50;4.50;4.00
84887;PMS7003;75150;54.494;18.518;2024-01-10T05:46:13;7.00;5.50;4.00
84887;PMS7003;75150;54.494;18.518;2024-01-10T05:48:14;6.75;4.00;4.00
84887;PMS7003;75150;54.494;18.518;2024-01-10T05:50:16;2.00;1.00;1.00
84887;PMS7003;75150;54.494;18.518;2024-01-10T05:52:17;7.00;6.00;4.50
84887;PMS7003;75150;54.494;18.518;2024-01-10T05:54:19;6.50;6.50;5.50
84887;PMS7003;75150;54.494;18.518;2024-01-10T05:56:21;6.75;4.00;3.50
84887;PMS7003;75150;54.494;18.518;2024-01-10T05:58:23;6.25;4.00;3.00
84887;PMS7003;75150;54.494;18.518;2024-01-10T06:00:24;3.50;3.25;3.00
84887;PMS7003;75150;54.494;18.518;2024-01-10T06:02:26;4.00;3.00;1.00
84887;PMS7003;75150;54.494;18.518;2024-01-10T06:04:27;5.50;3.25;3.00
84887;PMS7003;75150;54.494;18.518;2024-01-10T06:06:28;1.00;1.00;1.00
84887;PMS7003;75150;54.494;18.518;2024-01-10T06:08:30;4.00;3.00;3.00
84887;PMS7003;75150;54.494;18.518;2024-01-10T06:10:31;3.00;3.00;3.00
84887;PMS7003;75150;54.494;18.518;2024-01-10T06:12:34;3.75;3.75;3.00
84887;PMS7003;75150;54.494;18.518;2024-01-10T06:14:35;3.75;2.50;2.50
84887;PMS7003;75150;54.494;18.518;2024-01-10T06:16:37;3.50;2.50;1.00
84887;PMS7003;75150;54.494;18.518;2024-01-10T06:18:38;4.00;4.00;4.00
84887;PMS7003;75150;54.494;18.518;2024-01-10T06:20:39;6.75;6.00;5.00
84887;PMS7003;75150;54.494;18.518;2024-01-10T06:22:41;8.00;5.00;4.50
84887;PMS7003;75150;54.494;18.518;2024-01-10T06:24:42;4.00;3.25;3.00
84887;PMS7003;75150;54.494;18.518;2024-01-10T06:26:44;13.00;6.00;5.50
84887;PMS7003;75150;54.494;18.518;2024-01-10T06:28:47;9.25;4.00;3.00
84887;PMS7003;75150;54.494;18.518;2024-01-10T06:30:48;6.25;4.00;3.00
84887;PMS7003;75150;54.494;18.518;2024-01-10T06:32:49;2.50;2.50;0.50
84887;PMS7003;75150;54.494;18.518;2024-01-10T06:34:51;1.00;1.00;1.00
84887;PMS7003;75150;54.494;18.518;2024-01-10T06:36:52;3.50;2.00;1.00
84887;PMS7003;75150;54.494;18.518;2024-01-10T06:38:53;6.00;3.25;3.00
84887;PMS7003;75150;54.494;18.518;2024-01-10T06:40:55;3.50;3.50;1.50
84887;PMS7003;75150;54.494;18.518;2024-01-10T06:42:56;4.00;4.00;4.00
84887;PMS7003;75150;54.494;18.518;2024-01-10T06:44:59;8.50;4.00;3.75
84887;PMS7003;75150;54.494;18.518;2024-01-10T06:47:00;4.00;4.00;3.50
84887;PMS7003;75150;54.494;18.518;2024-01-10T06:49:02;6.75;4.00;3.00
84887;PMS7003;75150;54.494;18.518;2024-01-10T06:51:03;4.00;3.00;1.00
84887;PMS7003;75150;54.494;18.518;2024-01-10T06:53:05;9.75;6.00;6.00
84887;PMS7003;75150;54.494;18.518;2024-01-10T06:55:07;9.50;5.00;4.25
84887;PMS7003;75150;54.494;18.518;2024-01-10T06:57:08;6.00;3.00;1.00
84887;PMS7003;75150;54.494;18.518;2024-01-10T06:59:10;11.50;5.75;3.25
84887;PMS7003;75150;54.494;18.518;2024-01-10T07:01:13;6.75;5.50;4.00
84887;PMS7003;75150;54.494;18.518;2024-01-10T07:03:15;5.50;5.50;4.00
84887;PMS7003;75150;54.494;18.518;2024-01-10T07:05:16;3.50;3.25;3.00
84887;PMS7003;75150;54.494;18.518;2024-01-10T07:07:17;8.25;3.25;3.25
84887;PMS7003;75150;54.494;18.518;2024-01-10T07:09:19;6.00;6.00;4.00
84887;PMS7003;75150;54.494;18.518;2024-01-10T07:11:20;6.00;4.50;4.00
84887;PMS7003;75150;54.494;18.518;2024-01-10T07:13:22;6.25;6.25;4.00
84887;PMS7003;75150;54.494;18.518;2024-01-10T07:15:23;7.00;7.00;4.00
84887;PMS7003;75150;54.494;18.518;2024-01-10T07:17:26;3.50;3.50;3.00
84887;PMS7003;75150;54.494;18.518;2024-01-10T07:19:27;6.00;4.00;3.00
84887;PMS7003;75150;54.494;18.518;2024-01-10T07:21:29;8.00;7.00;4.50
84887;PMS7003;75150;54.494;18.518;2024-01-10T07:23:31;7.25;4.50;4.00
84887;PMS7003;75150;54.494;18.518;2024-01-10T07:25:32;8.00;4.00;3.50
84887;PMS7003;75150;54.494;18.518;2024-01-10T07:27:33;6.75;4.00;3.00
84887;PMS7003;75150;54.494;18.518;2024-01-10T07:29:35;7.00;4.50;3.00
84887;PMS7003;75150;54.494;18.518;2024-01-10T07:31:36;9.25;5.50;3.75
84887;PMS7003;75150;54.494;18.518;2024-01-10T07:33:39;6.25;6.25;4.00
84887;PMS7003;75150;54.494;18.518;2024-01-10T07:35:40;7.00;3.75;3.25
84887;PMS7003;75150;54.494;18.518;2024-01-10T07:37:42;7.25;5.75;4.00
84887;PMS7003;75150;54.494;18.518;2024-01-10T07:39:43;5.50;5.50;4.50
84887;PMS7003;75150;54.494;18.518;2024-01-10T07:41:45;6.25;4.50;4.00
84887;PMS7003;75150;54.494;18.518;2024-01-10T07:43:47;9.00;6.50;5.00
84887;PMS7003;75150;54.494;18.518;2024-01-10T07:45:48;5.50;3.75;3.00
84887;PMS7003;75150;54.494;18.518;2024-01-10T07:47:49;6.50;4.00;3.00
84887;PMS7003;75150;54.494;18.518;2024-01-10T07:49:52;4.00;4.00;4.00
84887;PMS7003;75150;54.494;18.518;2024-01-10T07:51:53;8.50;6.50;4.00
84887;PMS7003;75150;54.494;18.518;2024-01-10T07:53:55;6.00;3.50;3.00
84887;PMS7003;75150;54.494;18.518;2024-01-10T07:55:57;3.25;3.00;3.00
84887;PMS7003;75150;54.494;18.518;2024-01-10T07:58:00;5.00;5.00;3.50
84887;PMS7003;75150;54.494;18.518;2024-01-10T08:00:01;6.75;5.50;4.00
84887;PMS7003;75150;54.494;18.518;2024-01-10T08:02:03;6.00;6.00;4.00
84887;PMS7003;75150;54.494;18.518;2024-01-10T08:04:04;4.00;3.00;1.50
84887;PMS7003;75150;54.494;18.518;2024-01-10T08:06:07;6.25;5.50;4.00
84887;PMS7003;75150;54.494;18.518;2024-01-10T08:08:08;10.00;9.00;6.50
84887;PMS7003;75150;54.494;18.518;2024-01-10T08:10:10;6.25;4.00;3.00
84887;PMS7003;75150;54.494;18.518;2024-01-10T08:12:11;4.00;4.00;4.00
84887;PMS7003;75150;54.494;18.518;2024-01-10T08:14:12;5.00;5.00;4.00
84887;PMS7003;75150;54.494;18.518;2024-01-10T08:16:14;5.50;5.00;3.50
84887;PMS7003;75150;54.494;18.518;2024-01-10T08:18:15;7.00;4.00;3.00
84887;PMS7003;75150;54.494;18.518;2024-01-10T08:20:16;6.75;4.50;4.00
84887;PMS7003;75150;54.494;18.518;2024-01-10T08:22:19;5.50;4.50;4.00
84887;PMS7003;75150;54.494;18.518;2024-01-10T08:24:21;6.75;6.00;5.00
84887;PMS7003;75150;54.494;18.518;2024-01-10T08:26:22;4.00;4.00;3.25
84887;PMS7003;75150;54.494;18.518;2024-01-10T08:28:23;9.50;6.25;6.00
84887;PMS7003;75150;54.494;18.518;2024-01-10T08:30:25;5.50;5.50;4.00
84887;PMS7003;75150;54.494;18.518;2024-01-10T08:32:27;9.75;7.00;4.00
84887;PMS7003;75150;54.494;18.518;2024-01-10T08:34:29;3.00;3.00;3.00
84887;PMS7003;75150;54.494;18.518;2024-01-10T08:36:30;4.50;4.50;4.00
84887;PMS7003;75150;54.494;18.518;2024-01-10T08:38:33;5.50;5.50;4.00
84887;PMS7003;75150;54.494;18.518;2024-01-10T08:40:34;5.00;5.00;4.00
84887;PMS7003;75150;54.494;18.518;2024-01-10T08:42:36;7.50;4.00;4.00
84887;PMS7003;75150;54.494;18.518;2024-01-10T08:44:37;9.50;6.00;4.50
84887;PMS7003;75150;54.494;18.518;2024-01-10T08:46:39;4.50;4.50;3.00
84887;PMS7003;75150;54.494;18.518;2024-01-10T08:48:40;4.00;4.00;3.00
84887;PMS7003;75150;54.494;18.518;2024-01-10T08:50:42;6.00;6.00;4.00
84887;PMS7003;75150;54.494;18.518;2024-01-10T08:52:43;8.00;8.00;6.00
84887;PMS7003;75150;54.494;18.518;2024-01-10T08:54:46;6.75;6.75;5.50
84887;PMS7003;75150;54.494;18.518;2024-01-10T08:56:47;7.00;7.00;6.00
84887;PMS7003;75150;54.494;18.518;2024-01-10T08:58:49;13.00;10.00;9.00
84887;PMS7003;75150;54.494;18.518;2024-01-10T09:00:50;6.00;6.00;5.50
84887;PMS7003;75150;54.494;18.518;2024-01-10T09:02:52;6.00;4.00;4.00
84887;PMS7003;75150;54.494;18.518;2024-01-10T09:04:53;9.00;5.00;3.00
84887;PMS7003;75150;54.494;18.518;2024-01-10T09:06:55;8.50;8.50;6.00
84887;PMS7003;75150;54.494;18.518;2024-01-10T09:08:56;8.50;6.25;4.50
84887;PMS7003;75150;54.494;18.518;2024-01-10T09:10:59;11.50;7.00;7.00
84887;PMS7003;75150;54.494;18.518;2024-01-10T09:13:00;6.25;6.25;4.50
84887;PMS7003;75150;54.494;18.518;2024-01-10T09:15:02;13.25;9.75;7.50
84887;PMS7003;75150;54.494;18.518;2024-01-10T09:17:04;11.00;9.50;6.00
84887;PMS7003;75150;54.494;18.518;2024-01-10T09:19:06;7.00;6.50;5.50
84887;PMS7003;75150;54.494;18.518;2024-01-10T09:21:07;9.00;6.50;5.50
84887;PMS7003;75150;54.494;18.518;2024-01-10T09:23:09;8.00;8.00;6.75
84887;PMS7003;75150;54.494;18.518;2024-01-10T09:25:10;3.50;3.00;1.00
84887;PMS7003;75150;54.494;18.518;2024-01-10T09:27:13;6.75;5.50;4.00
84887;PMS7003;75150;54.494;18.518;2024-01-10T09:29:14;11.50;7.50;6.00
84887;PMS7003;75150;54.494;18.518;2024-01-10T09:31:16;5.00;4.00;3.50
84887;PMS7003;75150;54.494;18.518;2024-01-10T09:33:17;8.00;8.00;6.25
84887;PMS7003;75150;54.494;18.518;2024-01-10T09:35:19;12.00;7.00;7.00
84887;PMS7003;75150;54.494;18.518;2024-01-10T09:37:20;9.00;6.50;6.00
84887;PMS7003;75150;54.494;18.518;2024-01-10T09:39:21;7.00;7.00;5.50
84887;PMS7003;75150;54.494;18.518;2024-01-10T09:41:23;6.00;5.50;4.00
84887;PMS7003;75150;54.494;18.518;2024-01-10T09:43:30;7.00;6.50;6.25
84887;PMS7003;75150;54.494;18.518;2024-01-10T09:45:32;9.75;9.00;5.50
84887;PMS7003;75150;54.494;18.518;2024-01-10T09:47:36;10.25;9.00;6.50
84887;PMS7003;75150;54.494;18.518;2024-01-10T09:49:40;7.75;6.50;6.25
84887;PMS7003;75150;54.494;18.518;2024-01-10T09:51:41;9.50;9.50;5.50
84887;PMS7003;75150;54.494;18.518;2024-01-10T09:53:43;12.75;9.75;8.00
84887;PMS7003;75150;54.494;18.518;2024-01-10T09:55:49;10.25;9.00;7.00
84887;PMS7003;75150;54.494;18.518;2024-01-10T09:57:50;9.25;9.25;6.75
84887;PMS7003;75150;54.494;18.518;2024-01-10T09:59:53;7.50;7.00;6.00
84887;PMS7003;75150;54.494;18.518;2024-01-10T10:01:55;10.50;9.00;6.75
84887;PMS7003;75150;54.494;18.518;2024-01-10T10:03:58;9.50;9.50;8.50
84887;PMS7003;75150;54.494;18.518;2024-01-10T10:05:59;6.00;6.00;4.00
84887;PMS7003;75150;54.494;18.518;2024-01-10T10:08:01;9.00;8.50;7.50
84887;PMS7003;75150;54.494;18.518;2024-01-10T10:10:02;8.50;6.75;6.25
84887;PMS7003;75150;54.494;18.518;2024-01-10T10:12:05;11.50;7.00;6.00
84887;PMS7003;75150;54.494;18.518;2024-01-10T10:14:13;9.00;7.00;6.00
84887;PMS7003;75150;54.494;18.518;2024-01-10T10:16:22;10.75;7.00;6.00
84887;PMS7003;75150;54.494;18.518;2024-01-10T10:18:24;6.50;6.50;4.00
84887;PMS7003;75150;54.494;18.518;2024-01-10T10:20:26;12.50;7.50;6.00
84887;PMS7003;75150;54.494;18.518;2024-01-10T10:22:28;5.50;5.00;3.25
84887;PMS7003;75150;54.494;18.518;2024-01-10T10:24:30;9.25;6.75;4.50
84887;PMS7003;75150;54.494;18.518;2024-01-10T10:26:32;12.25;10.00;7.00
84887;PMS7003;75150;54.494;18.518;2024-01-10T10:28:34;12.75;12.00;8.00
84887;PMS7003;75150;54.494;18.518;2024-01-10T10:30:36;8.50;8.50;6.25
84887;PMS7003;75150;54.494;18.518;2024-01-10T10:32:39;9.00;6.75;6.00
84887;PMS7003;75150;54.494;18.518;2024-01-10T10:34:42;14.25;12.50;7.00
84887;PMS7003;75150;54.494;18.518;2024-01-10T10:36:44;13.00;7.00;6.00
84887;PMS7003;75150;54.494;18.518;2024-01-10T10:38:46;6.00;6.00;4.50
84887;PMS7003;75150;54.494;18.518;2024-01-10T10:40:48;6.00;4.00;3.00
84887;PMS7003;75150;54.494;18.518;2024-01-10T10:42:53;9.75;7.50;6.25
84887;PMS7003;75150;54.494;18.518;2024-01-10T10:44:57;9.50;9.50;7.00
84887;PMS7003;75150;54.494;18.518;2024-01-10T10:47:04;12.75;9.50;7.25
84887;PMS7003;75150;54.494;18.518;2024-01-10T10:49:11;9.75;9.50;5.00
84887;PMS7003;75150;54.494;18.518;2024-01-10T10:51:16;11.00;9.00;6.25
84887;PMS7003;75150;54.494;18.518;2024-01-10T10:53:20;9.00;9.00;6.25
84887;PMS7003;75150;54.494;18.518;2024-01-10T10:55:22;13.00;10.50;9.50
84887;PMS7003;75150;54.494;18.518;2024-01-10T10:57:26;10.50;9.00;7.00
84887;PMS7003;75150;54.494;18.518;2024-01-10T10:59:28;9.75;9.00;7.00
84887;PMS7003;75150;54.494;18.518;2024-01-10T11:01:32;14.50;12.50;9.00
84887;PMS7003;75150;54.494;18.518;2024-01-10T11:03:35;7.75;7.00;6.00
84887;PMS7003;75150;54.494;18.518;2024-01-10T11:05:40;14.50;11.50;9.00
84887;PMS7003;75150;54.494;18.518;2024-01-10T11:07:42;7.50;7.50;6.25
84887;PMS7003;75150;54.494;18.518;2024-01-10T11:09:45;15.00;9.75;7.00
84887;PMS7003;75150;54.494;18.518;2024-01-10T11:12:03;12.75;9.25;7.00
84887;PMS7003;75150;54.494;18.518;2024-01-10T11:14:21;10.25;8.50;6.75
84887;PMS7003;75150;54.494;18.518;2024-01-10T11:16:38;10.75;8.00;6.50
84887;PMS7003;75150;54.494;18.518;2024-01-10T11:19:15;8.50;8.50;6.50
84887;PMS7003;75150;54.494;18.518;2024-01-10T11:21:33;11.50;9.00;6.50
84887;PMS7003;75150;54.494;18.518;2024-01-10T11:23:45;17.25;10.50;9.00
84887;PMS7003;75150;54.494;18.518;2024-01-10T11:25:48;14.00;9.50;7.00
84887;PMS7003;75150;54.494;18.518;2024-01-10T11:27:51;9.00;7.50;6.00
84887;PMS7003;75150;54.494;18.518;2024-01-10T11:29:53;20.75;14.75;9.75
84887;PMS7003;75150;54.494;18.518;2024-01-10T11:31:55;9.25;9.00;6.75
84887;PMS7003;75150;54.494;18.518;2024-01-10T11:34:01;8.25;6.25;4.00
84887;PMS7003;75150;54.494;18.518;2024-01-10T11:36:09;8.50;7.50;5.00
84887;PMS7003;75150;54.494;18.518;2024-01-10T11:38:16;9.00;7.00;5.00
84887;PMS7003;75150;54.494;18.518;2024-01-10T11:40:23;17.00;13.00;9.50
84887;PMS7003;75150;54.494;18.518;2024-01-10T11:42:48;9.75;9.25;6.25
84887;PMS7003;75150;54.494;18.518;2024-01-10T11:44:55;12.75;10.00;7.00